Terminal Aerodrome Forecast
Issued by NWS

Home | Current Version | Previous Version | Text Only | Print | Product List | Glossary On
Versions: 1 2 3 4 5 6 7 8 9 10 11 12 13 14 15 16 17
000
FTUS41 KBOX 212341 AAB
TAFFMH
TAF AMD
KFMH 212341Z 2200/2224 24005KT 1/4SM FG OVC001
     FM220500 VRB03KT 2SM BR BKN001
     FM221500 05004KT 3SM BR OVC003
     FM221600 05005KT P6SM BKN008
     FM222100 06009KT P6SM OVC010=

USA.gov is the U.S. government's official web portal to all federal, state and local government web resources and services.